• Join FlightAware (Why Join?)
  • Login
  • US Flag 
04:44PM EST


 

Airport Tracker/Info


-or-


 

Live Flight TrackerFlight Track Log ✈ N273SK ✈ 20-Apr-2013 ✈ KDTW - KTVC

Flight Track Log - Related Links

Times and Time Zones

All times are in EDT time to prevent confusion due to time zone crossing. See the N273SK flight status page for this flight to view local times or setup timezone preferences in your user account.

Time Position Orientation Groundspeed Altitude Reporting Facility
EDT Latitude Longitude Course Direction KTS MPH feet Rate Location/Type
10:51AM 42.2017 -83.3553 229° Southwest 156 180 1,400  Level Cleveland Center
10:51AM 42.1878 -83.3772 230° Southwest 161 185 2,800 2,220 Climbing FAA TRACON SMA TRACON (SMA)
10:52AM 42.1794 -83.3917 232° Southwest 174 200 3,400 2,400 Climbing FAA TRACON SMA TRACON (SMA)
10:52AM 42.1681 -83.4108 231° Southwest 185 213 4,400 3,000 Climbing FAA TRACON SMA TRACON (SMA)
10:52AM 42.1561 -83.4303 230° Southwest 193 222 5,400 2,520 Climbing FAA TRACON SMA TRACON (SMA)
10:53AM 42.1508 -83.4539 253° West 199 229 6,100 2,160 Climbing FAA TRACON SMA TRACON (SMA)
10:53AM 42.1642 -83.4939 294° West 201 231 7,600 2,460 Climbing FAA TRACON SMA TRACON (SMA)
10:54AM 42.1717 -83.5178 293° West 202 232 8,600 2,760 Climbing FAA TRACON SMA TRACON (SMA)
10:54AM 42.1814 -83.5444 296° West 204 235 9,500 1,920 Climbing FAA TRACON SMA TRACON (SMA)
10:54AM 42.1903 -83.5669 298° West 219 252 9,900 900 Climbing FAA TRACON SMA TRACON (SMA)
10:55AM 42.1994 -83.5925 296° West 259 298 10,100 720 Climbing FAA TRACON SMA TRACON (SMA)
10:55AM 42.2119 -83.6283 295° West 272 313 10,400 1,920 Climbing FAA TRACON SMA TRACON (SMA)
10:55AM 42.2269 -83.6525 274° West 277 319 11,400 2,700 Climbing FAA TRACON SMA TRACON (SMA)
10:56AM 42.2483 -83.6661 335° Northwest 286 329 12,200 1,920 Climbing FAA TRACON SMA TRACON (SMA)
10:56AM 42.2803 -83.6653 North 322 371 12,700 1,200 Climbing FAA TRACON SMA TRACON (SMA)
10:56AM 42.3064 -83.6503 23° Northeast 334 384 13,000 1,020 Climbing FAA TRACON SMA TRACON (SMA)
10:57AM 42.3333 -83.6353 22° Northeast 345 397 13,400 2,220 Climbing FAA TRACON SMA TRACON (SMA)
10:57AM 42.3672 -83.6197 19° North 336 387 14,500 2,760 Climbing FAA TRACON SMA TRACON (SMA)
10:57AM 42.3939 -83.6081 18° North 331 381 15,200 2,100 Climbing FAA TRACON SMA TRACON (SMA)
10:58AM 42.4208 -83.5964 18° North 329 379 15,900 1,920 Climbing FAA TRACON SMA TRACON (SMA)
10:58AM 42.4483 -83.5833 19° North 326 375 16,500 1,800 Climbing FAA TRACON SMA TRACON (SMA)
10:58AM 42.4825 -83.5678 19° North 332 382 17,100 1,800 Climbing FAA TRACON SMA TRACON (SMA)
10:59AM 42.5100 -83.5556 18° North 351 404 17,700 1,320 Climbing FAA TRACON SMA TRACON (SMA)
10:59AM 42.5372 -83.5433 18° North 338 389 18,000 1,500 Climbing FAA TRACON SMA TRACON (SMA)
10:59AM 42.5719 -83.5269 19° North 341 392 18,700 1,920 Climbing FAA TRACON SMA TRACON (SMA)
11:00AM 42.6000 -83.5136 19° North 343 395 19,300 1,560 Climbing FAA TRACON SMA TRACON (SMA)
11:00AM 42.6281 -83.5006 19° North 347 399 19,800 1,800 Climbing FAA TRACON SMA TRACON (SMA)
11:00AM 42.6636 -83.4839 19° North 349 402 20,500 1,800 Climbing FAA TRACON SMA TRACON (SMA)
11:01AM 42.6925 -83.4703 19° North 352 405 21,000 1,320 Climbing FAA TRACON SMA TRACON (SMA)
11:01AM 42.7217 -83.4567 19° North 355 409 21,400 1,500 Climbing FAA TRACON SMA TRACON (SMA)
11:01AM 42.7586 -83.4394 19° North 362 417 22,000 1,440 Climbing FAA TRACON SMA TRACON (SMA)
11:02AM 42.7886 -83.4253 19° North 367 422 22,400 1,020 Climbing FAA TRACON SMA TRACON (SMA)
11:02AM 42.8192 -83.4111 19° North 372 428 22,700 900 Climbing FAA TRACON SMA TRACON (SMA)
11:02AM 42.8578 -83.3928 19° North 379 436 23,000 420 Climbing FAA TRACON SMA TRACON (SMA)
11:03AM 42.8900 -83.3781 19° North 392 451 23,000 300 Level FAA TRACON SMA TRACON (SMA)
11:03AM 42.9242 -83.3697 10° North 400 460 23,200 900 Climbing FAA TRACON SMA TRACON (SMA)
11:03AM 42.9664 -83.3661 North 398 458 23,600 1,020 Climbing FAA TRACON SMA TRACON (SMA)
11:04AM 43.0003 -83.3675 358° North 398 458 23,900 600 Climbing FAA TRACON SMA TRACON (SMA)
11:04AM 43.0086 -83.3669 North 397 457 24,000 120 Climbing FAA TRACON SMA TRACON (SMA)
11:04AM 43.0739 -83.3872 347° North 403 464 24,000  Level FAA TRACON SMA TRACON (SMA)
11:05AM 43.0956 -83.4028 332° Northwest 387 445 24,000  Level FAA TRACON SMA TRACON (SMA)
11:05AM 43.1531 -83.4889 312° West 362 417 24,000  Level Cleveland Center
11:06AM 43.2272 -83.6006 312° West 374 430 24,000  Level Cleveland Center
11:07AM 43.2992 -83.7183 310° West 385 443 24,000  Level Cleveland Center
11:08AM 43.3731 -83.8333 311° West 390 449 24,000  Level Cleveland Center
11:09AM 43.4469 -83.9489 311° West 401 461 24,000  Level Cleveland Center
11:11AM 43.6061 -84.1722 315° West 407 468 24,000  Level Minneapolis Center
11:12AM 43.6894 -84.2778 318° Northwest 408 470 24,000  Level Minneapolis Center
11:13AM 43.7725 -84.3836 317° Northwest 408 470 24,000 -300 Level Minneapolis Center
11:14AM 43.8553 -84.4897 317° Northwest 408 470 23,400 -1,380 Descending Minneapolis Center
11:15AM 43.9375 -84.5942 318° Northwest 404 465 21,200 -2,280 Descending Minneapolis Center
11:16AM 44.0239 -84.7042 318° Northwest 393 452 18,800 -2,160 Descending Minneapolis Center
11:17AM 44.0964 -84.7978 317° Northwest 368 423 16,800 -2,100 Descending Minneapolis Center
11:18AM 44.1700 -84.8867 319° Northwest 356 410 14,600 -2,160 Descending Minneapolis Center
11:19AM 44.2475 -84.9575 327° Northwest 341 392 12,400 -1,800 Descending Minneapolis Center
11:21AM 44.3197 -85.0269 325° Northwest 326 375 11,000 -1,620 Descending Minneapolis Center
11:22AM 44.3883 -85.0919 326° Northwest 261 300 9,200 -1,860 Descending Minneapolis Center
11:23AM 44.4425 -85.1450 325° Northwest 244 281 7,200 -1,860 Descending Minneapolis Center
11:24AM 44.4961 -85.1967 326° Northwest 239 275 5,400 -1,740 Descending Minneapolis Center
11:25AM 44.5464 -85.2464 325° Northwest 231 266 3,700 -1,140 Descending Minneapolis Center
11:26AM 44.5969 -85.2950 326° Northwest 226 260 3,100 -300 Descending Minneapolis Center
11:27AM 44.6467 -85.3417 326° Northwest 221 254 3,100 -180 Level Minneapolis Center
11:28AM 44.6972 -85.3872 327° Northwest 219 252 2,800 -300 Descending Minneapolis Center